Milfay, Oklahoma
Current Conditions -  °F | °C
As of 5:55 PM on Saturday 22 Nov 2014 (Local Time) from KCQB Reporting Station
Light Rain Light Rain  
Wind Chill: 57°   Ceiling: 10000
Heat Index: 57°   Visibility: 10mi
Dew Point: 57°   Wind: 23mph
Humidity: 100%   Direction: 170°S
Pressure: 29.79"   Gusts: 31mph
Location:  35.75°N, 96.57°W
Report Text: KCQB 222355Z AUTO 17020G27KT 10SM -RA SCT080 OVC100 14/14 A2979 RMK AO2
Loading
Personal Weather Stations






























Interactive Weather Map New forecast layout! Learn more

10-Day Weather Forecast

Advertisements
Track Severe Weather on mobile